createdAt,value
2018-07-25T00:01:36.606Z,12.80
2018-07-25T00:06:39.882Z,12.73
2018-07-25T00:11:43.157Z,12.50
2018-07-25T00:16:46.483Z,13.60
2018-07-25T00:21:49.799Z,15.37
2018-07-25T00:26:53.587Z,26.90
2018-07-25T00:31:56.963Z,36.07
2018-07-25T00:37:00.368Z,29.00
2018-07-25T00:42:05.574Z,20.20
2018-07-25T00:47:08.874Z,19.40
2018-07-25T00:52:12.361Z,15.87
2018-07-25T00:57:16.033Z,16.63
2018-07-25T01:02:19.761Z,17.27
2018-07-25T01:07:23.786Z,16.67
2018-07-25T01:12:27.684Z,16.50
2018-07-25T01:17:30.951Z,14.53
2018-07-25T01:22:34.344Z,14.33
2018-07-25T01:27:37.376Z,14.40
2018-07-25T01:32:40.644Z,15.50
2018-07-25T01:37:43.907Z,14.53
2018-07-25T01:42:47.205Z,15.20
2018-07-25T01:47:50.513Z,15.07
2018-07-25T01:52:53.789Z,15.17
2018-07-25T01:57:57.062Z,16.70
2018-07-25T02:03:00.363Z,14.87
2018-07-25T02:08:03.655Z,15.33
2018-07-25T02:13:06.970Z,14.53
2018-07-25T02:18:10.256Z,14.03
2018-07-25T02:23:13.555Z,13.73
2018-07-25T02:28:16.868Z,14.23
2018-07-25T02:33:24.372Z,15.33
2018-07-25T02:38:27.655Z,14.37
2018-07-25T02:43:30.927Z,15.10
2018-07-25T02:48:34.184Z,16.63
2018-07-25T02:53:37.439Z,14.90
2018-07-25T02:58:47.298Z,14.17
2018-07-25T03:03:50.560Z,14.27
2018-07-25T03:08:53.853Z,14.50
2018-07-25T03:13:57.682Z,14.57
2018-07-25T03:19:00.979Z,14.30
2018-07-25T03:24:04.261Z,14.90
2018-07-25T03:29:07.566Z,15.03
2018-07-25T03:34:10.836Z,15.07
2018-07-25T03:39:14.083Z,15.80
2018-07-25T03:44:17.387Z,15.77
2018-07-25T03:49:20.651Z,16.50
2018-07-25T03:54:23.908Z,16.67
2018-07-25T03:59:27.173Z,16.10
2018-07-25T04:04:30.462Z,15.93
2018-07-25T04:09:33.714Z,16.37
2018-07-25T04:14:36.980Z,15.67
2018-07-25T04:19:40.241Z,15.07
2018-07-25T04:24:43.761Z,14.47
2018-07-25T04:29:47.035Z,15.33
2018-07-25T04:34:50.342Z,15.33
2018-07-25T04:39:53.603Z,14.97
2018-07-25T04:44:56.597Z,15.63
2018-07-25T04:49:59.630Z,15.53
2018-07-25T04:55:02.939Z,14.67
2018-07-25T05:00:06.266Z,14.97
2018-07-25T05:05:09.549Z,14.80
2018-07-25T05:10:12.851Z,14.97
2018-07-25T05:15:16.119Z,14.10
2018-07-25T05:20:19.413Z,13.90
2018-07-25T05:25:22.686Z,13.47
2018-07-25T05:30:25.746Z,13.57
2018-07-25T05:35:29.495Z,13.73
2018-07-25T05:40:32.767Z,12.50
2018-07-25T05:45:36.052Z,13.67
2018-07-25T05:50:39.554Z,14.10
2018-07-25T05:55:42.818Z,13.67
2018-07-25T06:00:46.107Z,14.20
2018-07-25T06:05:49.444Z,16.10
2018-07-25T06:10:52.655Z,14.50
2018-07-25T06:15:55.926Z,13.00
2018-07-25T06:20:59.206Z,13.87
2018-07-25T06:26:02.609Z,13.27
2018-07-25T06:31:06.250Z,14.70
2018-07-25T06:36:09.531Z,13.73
2018-07-25T06:41:13.029Z,14.67
2018-07-25T06:46:17.039Z,15.53
2018-07-25T06:51:20.376Z,15.63
2018-07-25T06:56:23.669Z,14.03
2018-07-25T07:01:27.935Z,16.43
2018-07-25T07:06:31.208Z,15.47
2018-07-25T07:11:34.483Z,14.90
2018-07-25T07:16:38.407Z,14.53
2018-07-25T07:21:41.926Z,14.60
2018-07-25T07:26:45.725Z,14.07
2018-07-25T07:31:49.075Z,14.35
2018-07-25T07:36:52.765Z,14.60
2018-07-25T07:41:56.119Z,14.80
2018-07-25T07:46:59.480Z,13.98
2018-07-25T07:52:02.989Z,15.48
2018-07-25T07:57:06.586Z,14.35
2018-07-25T08:02:10.014Z,14.68
2018-07-25T08:07:13.667Z,10.93
2018-07-25T08:12:17.150Z,11.12
2018-07-25T08:17:20.581Z,10.38
2018-07-25T08:22:24.838Z,9.80
2018-07-25T08:27:28.129Z,8.98
2018-07-25T08:32:31.935Z,8.73
2018-07-25T08:37:35.948Z,8.88
2018-07-25T08:42:39.508Z,8.43
2018-07-25T08:47:42.983Z,7.12
2018-07-25T08:52:46.785Z,7.47
2018-07-25T08:57:49.799Z,7.22
2018-07-25T09:02:53.052Z,6.75
2018-07-25T09:07:56.327Z,7.53
2018-07-25T09:12:59.966Z,6.78
2018-07-25T09:18:04.785Z,6.97
2018-07-25T09:23:08.635Z,5.80
2018-07-25T09:28:13.274Z,6.30
2018-07-25T09:33:17.070Z,5.50
2018-07-25T09:38:20.332Z,6.05
2018-07-25T09:43:23.661Z,7.72
2018-07-25T09:48:27.156Z,8.05
2018-07-25T09:53:30.507Z,7.08
2018-07-25T09:58:34.480Z,4.87
2018-07-25T10:03:38.779Z,5.72
2018-07-25T10:08:42.085Z,4.87
2018-07-25T10:13:45.404Z,4.15
2018-07-25T10:18:48.670Z,3.90
2018-07-25T10:23:51.928Z,4.33
2018-07-25T10:28:55.204Z,4.00
2018-07-25T10:33:58.472Z,4.50
2018-07-25T10:39:01.752Z,3.90
2018-07-25T10:44:05.075Z,3.87
2018-07-25T10:49:08.383Z,3.30
2018-07-25T10:54:11.667Z,3.70
2018-07-25T10:59:15.116Z,3.75
2018-07-25T11:04:18.387Z,3.35
2018-07-25T11:09:22.229Z,3.62
2018-07-25T11:14:25.548Z,3.55
2018-07-25T11:19:28.815Z,3.62
2018-07-25T11:24:31.834Z,3.65
2018-07-25T11:29:35.107Z,3.62
2018-07-25T11:34:38.404Z,2.90
2018-07-25T11:39:41.664Z,2.90
2018-07-25T11:44:44.936Z,3.17
2018-07-25T11:49:48.222Z,3.02
2018-07-25T11:54:51.504Z,2.90
2018-07-25T11:59:54.747Z,3.20
2018-07-25T12:04:57.999Z,2.92
2018-07-25T12:10:01.280Z,2.98
2018-07-25T12:15:06.149Z,3.55
2018-07-25T12:20:09.407Z,3.15
2018-07-25T12:25:12.704Z,3.15
2018-07-25T12:30:15.972Z,2.80
2018-07-25T12:35:19.228Z,2.80
2018-07-25T12:40:22.514Z,2.72
2018-07-25T12:45:25.620Z,2.58
2018-07-25T12:50:28.931Z,3.05
2018-07-25T12:55:31.947Z,2.67
2018-07-25T13:00:35.466Z,3.30
2018-07-25T13:05:38.718Z,3.20
2018-07-25T13:10:42.028Z,3.10
2018-07-25T13:15:45.084Z,3.40
2018-07-25T13:20:48.340Z,3.30
2018-07-25T13:25:51.640Z,3.47
2018-07-25T13:30:54.633Z,2.87
2018-07-25T13:35:57.700Z,2.40
2018-07-25T13:41:00.976Z,2.30
2018-07-25T13:46:04.679Z,2.17
2018-07-25T13:51:08.470Z,1.60
2018-07-25T13:56:11.530Z,1.10
2018-07-25T14:01:14.912Z,1.70
2018-07-25T14:06:18.199Z,1.20
2018-07-25T14:11:21.462Z,1.00
2018-07-25T14:16:24.740Z,1.10
2018-07-25T14:21:28.019Z,1.27
2018-07-25T14:26:31.051Z,1.40
2018-07-25T14:31:34.359Z,1.60
2018-07-25T14:36:37.653Z,1.40
2018-07-25T14:41:41.498Z,1.32
2018-07-25T14:46:44.822Z,1.80
2018-07-25T14:51:48.038Z,1.25
2018-07-25T14:56:51.332Z,1.67
2018-07-25T15:01:54.583Z,1.67
2018-07-25T15:06:57.919Z,1.57
2018-07-25T15:12:01.209Z,1.77
2018-07-25T15:17:04.543Z,2.08
2018-07-25T15:22:07.820Z,1.80
2018-07-25T15:27:11.115Z,2.00
2018-07-25T15:32:14.422Z,1.90
2018-07-25T15:37:17.682Z,1.77
2018-07-25T15:42:20.968Z,2.10
2018-07-25T15:47:24.290Z,2.10
2018-07-25T15:52:27.567Z,2.10
2018-07-25T15:57:30.827Z,1.80
2018-07-25T16:02:33.868Z,2.50
2018-07-25T16:07:37.427Z,2.95
2018-07-25T16:12:40.874Z,2.70
2018-07-25T16:17:44.379Z,2.70
2018-07-25T16:22:47.757Z,2.37
2018-07-25T16:27:50.870Z,1.90
2018-07-25T16:32:53.887Z,1.80
2018-07-25T16:37:57.236Z,2.00
2018-07-25T16:43:00.498Z,2.00
2018-07-25T16:48:03.766Z,2.10
2018-07-25T16:53:07.035Z,1.70
2018-07-25T16:58:10.462Z,2.30
2018-07-25T17:03:13.870Z,2.20
2018-07-25T17:08:17.405Z,2.00
2018-07-25T17:13:21.025Z,6.47
2018-07-25T17:18:24.308Z,2.12
2018-07-25T17:23:27.334Z,2.63
2018-07-25T17:28:30.602Z,2.37
2018-07-25T17:33:33.903Z,1.93
2018-07-25T17:38:37.198Z,2.20
2018-07-25T17:43:40.488Z,2.13
2018-07-25T17:48:43.514Z,2.90
2018-07-25T17:53:46.804Z,2.37
2018-07-25T17:58:49.823Z,2.53
2018-07-25T18:03:53.324Z,2.97
2018-07-25T18:08:56.423Z,2.73
2018-07-25T18:14:05.067Z,2.57
2018-07-25T18:19:08.923Z,3.00
2018-07-25T18:24:13.160Z,2.50
2018-07-25T18:29:16.721Z,2.93
2018-07-25T18:34:19.989Z,2.90
2018-07-25T18:39:23.346Z,3.20
2018-07-25T18:44:26.394Z,3.23
2018-07-25T18:49:29.405Z,2.77
2018-07-25T18:54:32.475Z,3.33
2018-07-25T18:59:35.495Z,2.73
2018-07-25T19:04:38.507Z,3.27
2018-07-25T19:09:41.759Z,3.40
2018-07-25T19:14:50.393Z,3.80
2018-07-25T19:19:53.675Z,3.60
2018-07-25T19:24:57.082Z,3.50
2018-07-25T19:30:00.653Z,4.07
2018-07-25T19:35:03.712Z,3.63
2018-07-25T19:40:06.665Z,4.50
2018-07-25T19:45:09.952Z,4.30
2018-07-25T19:50:13.248Z,4.53
2018-07-25T19:55:16.238Z,4.50
2018-07-25T20:00:19.253Z,4.80
2018-07-25T20:05:22.616Z,5.20
2018-07-25T20:10:25.633Z,4.80
2018-07-25T20:15:34.073Z,5.07
2018-07-25T20:20:37.070Z,5.67
2018-07-25T20:25:40.190Z,5.20
2018-07-25T20:30:43.488Z,4.70
2018-07-25T20:35:46.545Z,5.00
2018-07-25T20:40:49.519Z,4.97
2018-07-25T20:45:53.420Z,5.57
2018-07-25T20:50:56.420Z,5.37
2018-07-25T20:55:59.418Z,5.23
2018-07-25T21:01:02.419Z,5.80
2018-07-25T21:06:05.438Z,5.27
2018-07-25T21:11:08.507Z,5.90
2018-07-25T21:16:11.728Z,7.27
2018-07-25T21:21:14.979Z,5.60
2018-07-25T21:26:18.244Z,5.83
2018-07-25T21:31:21.542Z,6.50
2018-07-25T21:36:25.360Z,6.33
2018-07-25T21:41:29.177Z,5.37
2018-07-25T21:46:33.011Z,6.17
2018-07-25T21:51:36.706Z,6.10
2018-07-25T21:56:40.551Z,6.17
2018-07-25T22:01:43.906Z,6.00
2018-07-25T22:06:47.173Z,5.90
2018-07-25T22:11:50.410Z,5.93
2018-07-25T22:16:53.720Z,6.13
2018-07-25T22:21:56.985Z,7.27
2018-07-25T22:27:00.251Z,6.97
2018-07-25T22:32:04.008Z,6.30
2018-07-25T22:37:07.504Z,6.00
2018-07-25T22:42:10.778Z,5.53
2018-07-25T22:47:14.059Z,6.40
2018-07-25T22:52:17.311Z,5.80
2018-07-25T22:57:21.228Z,6.13
2018-07-25T23:02:24.493Z,7.40
2018-07-25T23:07:27.766Z,13.47
2018-07-25T23:12:31.364Z,11.23
2018-07-25T23:17:34.620Z,10.80
2018-07-25T23:22:50.059Z,13.43
2018-07-25T23:27:54.463Z,15.27
2018-07-25T23:32:57.752Z,15.33
2018-07-25T23:38:01.020Z,11.67
2018-07-25T23:43:04.303Z,9.33
2018-07-25T23:48:07.564Z,7.47
2018-07-25T23:53:10.823Z,7.47
2018-07-25T23:58:14.086Z,7.13
